Terminal Aerodrome Forecast
Issued by NWS

Home | Current Version | Previous Version | Text Only | Print | Product List | Glossary On
Versions: 1 2 3 4 5 6 7 8 9 10 11 12 13 14
000
FTAK31 PAJN 211900 AAA
TAFAWG
TAF AMD
PAWG 211900Z 2119/2218 12009G14KT P6SM SCT040 OVC060
     FM212100 12007G15KT P6SM VCSH SCT025 OVC050
     FM212300 12008G16KT 6SM -RA FEW010 BKN035 OVC050
     FM221200 11010KT 4SM -RA BR BKN015 OVC025
      AMD LTD TO CLD VIS AND WIND 2206/2215=

USA.gov is the U.S. government's official web portal to all federal, state and local government web resources and services.